createdAt,value
2023-05-14T00:01:08.826Z,12.70
2023-05-14T00:06:12.707Z,12.70
2023-05-14T00:11:19.365Z,12.70
2023-05-14T00:16:23.045Z,12.70
2023-05-14T00:21:27.050Z,12.70
2023-05-14T00:26:33.046Z,12.70
2023-05-14T00:31:36.383Z,12.80
2023-05-14T00:36:43.344Z,12.80
2023-05-14T00:41:49.217Z,12.90
2023-05-14T00:46:54.382Z,13.00
2023-05-14T00:51:59.347Z,12.90
2023-05-14T00:57:06.710Z,12.90
2023-05-14T01:02:11.150Z,13.00
2023-05-14T01:07:20.804Z,12.80
2023-05-14T01:12:34.540Z,12.70
2023-05-14T01:17:42.632Z,12.70
2023-05-14T01:22:47.822Z,12.60
2023-05-14T01:28:00.809Z,12.50
2023-05-14T01:33:14.534Z,12.30
2023-05-14T01:38:22.303Z,12.30
2023-05-14T01:43:26.119Z,12.40
2023-05-14T01:48:30.837Z,12.50
2023-05-14T01:53:38.252Z,12.60
2023-05-14T01:58:41.397Z,12.50
2023-05-14T02:03:45.073Z,12.40
2023-05-14T02:08:50.634Z,12.20
2023-05-14T02:13:53.975Z,11.80
2023-05-14T02:18:58.836Z,11.40
2023-05-14T02:24:04.506Z,11.30
2023-05-14T02:29:10.110Z,11.10
2023-05-14T02:34:15.970Z,11.10
2023-05-14T02:39:21.394Z,11.10
2023-05-14T02:44:25.264Z,10.80
2023-05-14T02:49:29.380Z,10.60
2023-05-14T02:54:35.152Z,10.40
2023-05-14T02:59:41.913Z,10.40
2023-05-14T03:04:46.006Z,10.50
2023-05-14T03:09:51.347Z,10.60
2023-05-14T03:14:55.812Z,11.00
2023-05-14T03:20:00.164Z,11.00
2023-05-14T03:25:05.920Z,11.00
2023-05-14T03:30:13.607Z,11.00
2023-05-14T03:35:18.290Z,10.80
2023-05-14T03:40:24.458Z,10.60
2023-05-14T03:45:31.191Z,10.20
2023-05-14T03:50:36.340Z,10.00
2023-05-14T03:55:44.896Z,10.10
2023-05-14T04:00:48.830Z,10.00
2023-05-14T04:05:53.049Z,10.00
2023-05-14T04:10:58.722Z,10.10
2023-05-14T04:16:02.549Z,10.20
2023-05-14T04:21:07.596Z,10.50
2023-05-14T04:26:12.031Z,10.70
2023-05-14T04:31:15.791Z,11.00
2023-05-14T04:36:20.009Z,11.30
2023-05-14T04:41:26.815Z,11.60
2023-05-14T04:46:31.421Z,11.80
2023-05-14T04:51:34.101Z,12.20
2023-05-14T04:56:38.140Z,12.50
2023-05-14T05:01:40.904Z,12.80
2023-05-14T05:06:43.615Z,13.00
2023-05-14T05:11:47.851Z,13.20
2023-05-14T05:16:50.507Z,13.10
2023-05-14T05:21:53.284Z,13.20
2023-05-14T05:26:57.314Z,13.40
2023-05-14T05:32:00.425Z,13.20
2023-05-14T05:37:03.196Z,13.50
2023-05-14T05:42:08.532Z,13.80
2023-05-14T05:47:11.197Z,14.10
2023-05-14T05:52:13.930Z,14.20
2023-05-14T05:57:17.961Z,14.50
2023-05-14T06:02:20.757Z,15.10
2023-05-14T06:07:24.481Z,15.30
2023-05-14T06:12:28.719Z,15.60
2023-05-14T06:17:31.460Z,15.60
2023-05-14T06:22:34.218Z,15.70
2023-05-14T06:27:38.213Z,15.60
2023-05-14T06:32:40.910Z,15.90
2023-05-14T06:37:43.576Z,16.30
2023-05-14T06:42:47.778Z,16.60
2023-05-14T06:47:50.466Z,17.00
2023-05-14T06:52:53.136Z,17.30
2023-05-14T06:57:57.179Z,16.90
2023-05-14T07:02:59.950Z,16.90
2023-05-14T07:08:02.758Z,17.30
2023-05-14T07:13:06.953Z,17.50
2023-05-14T07:18:09.671Z,17.90
2023-05-14T07:23:12.360Z,18.00
2023-05-14T07:28:16.404Z,17.70
2023-05-14T07:33:19.028Z,18.10
2023-05-14T07:38:21.830Z,18.10
2023-05-14T07:43:25.837Z,18.00
2023-05-14T07:48:28.531Z,18.20
2023-05-14T07:53:31.338Z,17.90
2023-05-14T07:58:35.944Z,17.90
2023-05-14T08:03:38.622Z,18.40
2023-05-14T08:08:41.545Z,19.00
2023-05-14T08:13:45.552Z,19.60
2023-05-14T08:18:49.281Z,20.00
2023-05-14T08:23:51.928Z,20.00
2023-05-14T08:28:55.935Z,20.00
2023-05-14T08:33:58.590Z,19.60
2023-05-14T08:39:01.232Z,20.10
2023-05-14T08:44:09.758Z,20.50
2023-05-14T08:49:22.827Z,20.30
2023-05-14T08:54:27.041Z,20.80
2023-05-14T08:59:31.121Z,21.20
2023-05-14T09:04:34.557Z,20.50
2023-05-14T09:09:38.498Z,21.10
2023-05-14T09:14:42.862Z,21.40
2023-05-14T09:19:47.359Z,21.10
2023-05-14T09:25:04.600Z,21.30
2023-05-14T09:30:10.855Z,24.20
2023-05-14T09:35:17.449Z,24.10
2023-05-14T09:40:21.650Z,25.00
2023-05-14T09:45:26.438Z,24.20
2023-05-14T09:50:29.168Z,26.30
2023-05-14T09:55:32.885Z,26.50
2023-05-14T10:00:37.610Z,28.20
2023-05-14T10:05:42.037Z,30.80
2023-05-14T10:10:44.726Z,32.20
2023-05-14T10:15:50.214Z,33.50
2023-05-14T10:21:05.615Z,36.00
2023-05-14T10:26:08.923Z,35.50
2023-05-14T10:31:14.606Z,37.20
2023-05-14T10:36:18.811Z,36.20
2023-05-14T10:41:21.878Z,34.50
2023-05-14T10:46:26.540Z,31.70
2023-05-14T10:51:29.311Z,31.50
2023-05-14T10:56:32.157Z,29.90
2023-05-14T11:01:36.236Z,28.50
2023-05-14T11:06:39.936Z,26.80
2023-05-14T11:11:42.655Z,27.00
2023-05-14T11:16:48.040Z,27.40
2023-05-14T11:21:50.948Z,28.20
2023-05-14T11:26:55.696Z,28.30
2023-05-14T11:31:59.861Z,28.90
2023-05-14T11:37:05.237Z,28.80
2023-05-14T11:42:14.514Z,29.30
2023-05-14T11:47:19.608Z,28.90
2023-05-14T11:52:22.554Z,30.80
2023-05-14T11:57:25.547Z,29.90
2023-05-14T12:02:30.089Z,31.00
2023-05-14T12:07:32.893Z,29.70
2023-05-14T12:12:37.503Z,27.00
2023-05-14T12:17:42.006Z,27.10
2023-05-14T12:22:44.720Z,26.50
2023-05-14T12:27:47.471Z,26.90
2023-05-14T12:32:52.792Z,27.80
2023-05-14T12:37:55.837Z,29.30
2023-05-14T12:42:58.516Z,31.40
2023-05-14T12:48:02.714Z,30.60
2023-05-14T12:53:05.645Z,28.50
2023-05-14T12:58:08.340Z,27.30
2023-05-14T13:03:12.427Z,27.30
2023-05-14T13:08:17.855Z,28.60
2023-05-14T13:13:20.766Z,28.50
2023-05-14T13:18:26.618Z,28.30
2023-05-14T13:23:29.482Z,27.80
2023-05-14T13:28:32.123Z,26.50
2023-05-14T13:33:38.469Z,25.00
2023-05-14T13:38:41.215Z,24.50
2023-05-14T13:43:43.860Z,24.00
2023-05-14T13:48:47.935Z,23.60
2023-05-14T13:53:50.738Z,23.50
2023-05-14T13:58:53.612Z,23.60
2023-05-14T14:03:57.746Z,23.40
2023-05-14T14:09:00.406Z,23.10
2023-05-14T14:14:03.050Z,23.20
2023-05-14T14:19:08.039Z,23.40
2023-05-14T14:24:10.753Z,23.90
2023-05-14T14:29:13.386Z,24.00
2023-05-14T14:34:17.439Z,23.50
2023-05-14T14:39:20.104Z,23.80
2023-05-14T14:44:22.854Z,23.70
2023-05-14T14:49:27.734Z,23.60
2023-05-14T14:54:30.388Z,23.20
2023-05-14T14:59:33.017Z,23.20
2023-05-14T15:04:37.940Z,23.30
2023-05-14T15:09:40.606Z,23.30
2023-05-14T15:14:43.389Z,23.30
2023-05-14T15:19:47.560Z,23.20
2023-05-14T15:24:50.426Z,23.00
2023-05-14T15:29:53.135Z,23.00
2023-05-14T15:34:57.377Z,22.90
2023-05-14T15:40:00.068Z,22.80
2023-05-14T15:45:02.876Z,22.50
2023-05-14T15:50:08.686Z,22.60
2023-05-14T15:55:11.723Z,22.60
2023-05-14T16:00:15.105Z,22.40
2023-05-14T16:05:19.180Z,22.20
2023-05-14T16:10:22.751Z,21.90
2023-05-14T16:15:26.485Z,21.70
2023-05-14T16:20:31.943Z,20.80
2023-05-14T16:25:38.292Z,19.90
2023-05-14T16:30:41.757Z,19.40
2023-05-14T16:35:46.299Z,18.90
2023-05-14T16:40:51.841Z,18.70
2023-05-14T16:45:54.729Z,18.50
2023-05-14T16:51:21.628Z,18.50
2023-05-14T16:56:35.510Z,18.30
2023-05-14T17:01:46.464Z,18.10
2023-05-14T17:07:46.601Z,17.80
2023-05-14T17:32:05.437Z,17.90
2023-05-14T17:37:06.788Z,17.70
2023-05-14T17:42:10.083Z,17.70
2023-05-14T17:47:14.216Z,17.50
2023-05-14T17:52:16.939Z,17.30
2023-05-14T17:57:19.648Z,17.30
2023-05-14T18:02:23.662Z,17.40
2023-05-14T18:07:26.576Z,17.40
2023-05-14T18:12:29.330Z,17.30
2023-05-14T18:17:33.387Z,17.10
2023-05-14T18:22:36.159Z,17.00
2023-05-14T18:27:44.130Z,16.80
2023-05-14T18:32:48.182Z,16.80
2023-05-14T18:37:50.947Z,16.70
2023-05-14T18:42:53.648Z,16.60
2023-05-14T18:47:57.785Z,16.50
2023-05-14T18:53:00.546Z,16.20
2023-05-14T18:58:03.339Z,16.00
2023-05-14T19:03:07.566Z,15.80
2023-05-14T19:08:10.458Z,15.60
2023-05-14T19:13:13.125Z,15.60
2023-05-14T19:18:17.644Z,15.40
2023-05-14T19:23:20.333Z,15.30
2023-05-14T19:28:23.137Z,15.10
2023-05-14T19:33:27.648Z,15.10
2023-05-14T19:38:30.594Z,15.00
2023-05-14T19:43:33.259Z,15.00
2023-05-14T19:48:38.709Z,14.80
2023-05-14T19:53:41.420Z,14.80
2023-05-14T19:58:44.231Z,14.80
2023-05-14T20:03:48.249Z,14.60
2023-05-14T20:08:51.471Z,14.60
2023-05-14T20:13:54.154Z,14.50
2023-05-14T20:18:58.330Z,14.50
2023-05-14T20:24:01.110Z,14.40
2023-05-14T20:29:03.984Z,14.20
2023-05-14T20:34:08.012Z,14.00
2023-05-14T20:39:11.683Z,14.00
2023-05-14T20:44:14.466Z,13.80
2023-05-14T20:49:18.517Z,13.70
2023-05-14T20:54:21.217Z,13.90
2023-05-14T20:59:23.861Z,13.80
2023-05-14T21:04:28.135Z,13.70
2023-05-14T21:09:30.917Z,14.00
2023-05-14T21:14:33.736Z,14.10
2023-05-14T21:19:37.794Z,14.00
2023-05-14T21:24:40.592Z,14.10
2023-05-14T21:29:44.763Z,14.00
2023-05-14T21:34:48.743Z,13.90
2023-05-14T21:39:51.881Z,13.80
2023-05-14T21:44:54.588Z,13.80
2023-05-14T21:49:58.520Z,13.70
2023-05-14T21:55:01.158Z,13.50
2023-05-14T22:00:07.643Z,13.40
2023-05-14T22:05:11.774Z,13.60
2023-05-14T22:10:15.640Z,13.70
2023-05-14T22:15:18.323Z,13.80
2023-05-14T22:20:22.481Z,13.90
2023-05-14T22:25:25.797Z,13.90
2023-05-14T22:30:28.813Z,13.80
2023-05-14T22:35:32.884Z,14.00
2023-05-14T22:40:35.563Z,13.90
2023-05-14T22:45:38.263Z,13.80
2023-05-14T22:50:42.228Z,13.80
2023-05-14T22:55:44.878Z,13.90
2023-05-14T23:00:47.553Z,13.90
2023-05-14T23:05:52.015Z,13.80
2023-05-14T23:10:54.748Z,14.00
2023-05-14T23:15:57.528Z,13.90
2023-05-14T23:21:01.517Z,13.90
2023-05-14T23:26:04.674Z,13.70
2023-05-14T23:31:07.507Z,13.60
2023-05-14T23:36:50.068Z,13.40
2023-05-14T23:42:37.198Z,13.30
2023-05-14T23:53:42.716Z,13.20
2023-05-14T23:59:15.112Z,12.90
